sensor_id;sensor_type;location;lat;lon;timestamp;temperature;humidity
38398;DHT22;24179;52.094;4.408;2023-06-14T00:01:41;19.40;97.60
38398;DHT22;24179;52.094;4.408;2023-06-14T00:04:41;19.40;98.30
38398;DHT22;24179;52.094;4.408;2023-06-14T00:07:42;19.40;98.90
38398;DHT22;24179;52.094;4.408;2023-06-14T00:10:42;19.40;99.40
38398;DHT22;24179;52.094;4.408;2023-06-14T00:13:46;19.40;99.90
38398;DHT22;24179;52.094;4.408;2023-06-14T00:16:46;19.30;99.90
38398;DHT22;24179;52.094;4.408;2023-06-14T00:19:48;19.30;99.90
38398;DHT22;24179;52.094;4.408;2023-06-14T00:22:48;19.40;99.90
38398;DHT22;24179;52.094;4.408;2023-06-14T00:25:52;19.30;99.90
38398;DHT22;24179;52.094;4.408;2023-06-14T00:28:53;19.20;99.90
38398;DHT22;24179;52.094;4.408;2023-06-14T00:31:56;19.40;99.90
38398;DHT22;24179;52.094;4.408;2023-06-14T00:34:59;19.10;99.90
38398;DHT22;24179;52.094;4.408;2023-06-14T00:37:59;19.20;99.90
38398;DHT22;24179;52.094;4.408;2023-06-14T00:41:00;19.20;99.90
38398;DHT22;24179;52.094;4.408;2023-06-14T00:44:00;19.20;99.90
38398;DHT22;24179;52.094;4.408;2023-06-14T00:47:01;19.10;99.90
38398;DHT22;24179;52.094;4.408;2023-06-14T00:50:02;19.10;99.90
38398;DHT22;24179;52.094;4.408;2023-06-14T00:53:02;19.10;99.90
38398;DHT22;24179;52.094;4.408;2023-06-14T00:56:03;19.10;99.90
38398;DHT22;24179;52.094;4.408;2023-06-14T00:59:03;19.00;99.90
38398;DHT22;24179;52.094;4.408;2023-06-14T01:02:04;19.00;99.90
38398;DHT22;24179;52.094;4.408;2023-06-14T01:05:05;19.00;99.90
38398;DHT22;24179;52.094;4.408;2023-06-14T01:11:11;19.00;99.90
38398;DHT22;24179;52.094;4.408;2023-06-14T01:14:13;18.90;99.90
38398;DHT22;24179;52.094;4.408;2023-06-14T01:17:14;18.80;99.90
38398;DHT22;24179;52.094;4.408;2023-06-14T01:20:17;18.80;99.90
38398;DHT22;24179;52.094;4.408;2023-06-14T01:23:20;18.70;99.90
38398;DHT22;24179;52.094;4.408;2023-06-14T01:26:22;18.70;99.90
38398;DHT22;24179;52.094;4.408;2023-06-14T01:29:23;18.60;99.90
38398;DHT22;24179;52.094;4.408;2023-06-14T01:32:28;18.60;99.90
38398;DHT22;24179;52.094;4.408;2023-06-14T01:35:29;18.50;99.90
38398;DHT22;24179;52.094;4.408;2023-06-14T01:38:30;18.50;99.90
38398;DHT22;24179;52.094;4.408;2023-06-14T01:41:31;18.50;99.90
38398;DHT22;24179;52.094;4.408;2023-06-14T01:44:33;18.50;99.90
38398;DHT22;24179;52.094;4.408;2023-06-14T01:47:33;18.40;99.90
38398;DHT22;24179;52.094;4.408;2023-06-14T01:50:35;18.30;99.90
38398;DHT22;24179;52.094;4.408;2023-06-14T01:53:38;18.30;99.90
38398;DHT22;24179;52.094;4.408;2023-06-14T01:56:39;18.20;99.90
38398;DHT22;24179;52.094;4.408;2023-06-14T01:59:39;18.20;99.90
38398;DHT22;24179;52.094;4.408;2023-06-14T02:02:40;18.20;99.90
38398;DHT22;24179;52.094;4.408;2023-06-14T02:05:41;18.10;99.90
38398;DHT22;24179;52.094;4.408;2023-06-14T02:08:41;18.00;99.90
38398;DHT22;24179;52.094;4.408;2023-06-14T02:11:43;18.00;99.90
38398;DHT22;24179;52.094;4.408;2023-06-14T02:14:43;18.40;99.90
38398;DHT22;24179;52.094;4.408;2023-06-14T02:17:45;17.90;99.90
38398;DHT22;24179;52.094;4.408;2023-06-14T02:20:47;17.90;99.90
38398;DHT22;24179;52.094;4.408;2023-06-14T02:23:47;17.90;99.90
38398;DHT22;24179;52.094;4.408;2023-06-14T02:26:48;17.90;99.90
38398;DHT22;24179;52.094;4.408;2023-06-14T02:29:48;17.80;99.90
38398;DHT22;24179;52.094;4.408;2023-06-14T02:32:49;17.80;99.90
38398;DHT22;24179;52.094;4.408;2023-06-14T02:35:51;17.90;99.90
38398;DHT22;24179;52.094;4.408;2023-06-14T02:38:53;17.70;99.90
38398;DHT22;24179;52.094;4.408;2023-06-14T02:41:54;17.70;99.90
38398;DHT22;24179;52.094;4.408;2023-06-14T02:44:58;17.60;99.90
38398;DHT22;24179;52.094;4.408;2023-06-14T02:47:58;17.50;99.90
38398;DHT22;24179;52.094;4.408;2023-06-14T02:50:58;17.60;99.90
38398;DHT22;24179;52.094;4.408;2023-06-14T02:53:59;17.60;99.90
38398;DHT22;24179;52.094;4.408;2023-06-14T02:56:59;17.50;99.90
38398;DHT22;24179;52.094;4.408;2023-06-14T03:00:00;17.50;99.90
38398;DHT22;24179;52.094;4.408;2023-06-14T03:03:00;17.50;99.90
38398;DHT22;24179;52.094;4.408;2023-06-14T03:06:02;17.40;99.90
38398;DHT22;24179;52.094;4.408;2023-06-14T03:09:04;17.40;99.90
38398;DHT22;24179;52.094;4.408;2023-06-14T03:12:05;17.40;99.90
38398;DHT22;24179;52.094;4.408;2023-06-14T03:15:10;17.30;99.90
38398;DHT22;24179;52.094;4.408;2023-06-14T03:18:11;17.20;99.90
38398;DHT22;24179;52.094;4.408;2023-06-14T03:21:12;17.20;99.90
38398;DHT22;24179;52.094;4.408;2023-06-14T03:24:12;17.10;99.90
38398;DHT22;24179;52.094;4.408;2023-06-14T03:27:20;17.40;99.90
38398;DHT22;24179;52.094;4.408;2023-06-14T03:30:21;17.10;99.90
38398;DHT22;24179;52.094;4.408;2023-06-14T03:33:21;17.00;99.90
38398;DHT22;24179;52.094;4.408;2023-06-14T03:36:25;17.10;99.90
38398;DHT22;24179;52.094;4.408;2023-06-14T03:39:28;17.10;99.90
38398;DHT22;24179;52.094;4.408;2023-06-14T03:42:29;17.20;99.90
38398;DHT22;24179;52.094;4.408;2023-06-14T03:45:29;17.10;99.90
38398;DHT22;24179;52.094;4.408;2023-06-14T03:48:30;17.10;99.90
38398;DHT22;24179;52.094;4.408;2023-06-14T03:51:30;17.10;99.90
38398;DHT22;24179;52.094;4.408;2023-06-14T03:54:31;17.10;99.90
38398;DHT22;24179;52.094;4.408;2023-06-14T03:57:32;17.10;99.90
38398;DHT22;24179;52.094;4.408;2023-06-14T04:00:33;17.20;99.90
38398;DHT22;24179;52.094;4.408;2023-06-14T04:03:33;17.20;99.90
38398;DHT22;24179;52.094;4.408;2023-06-14T04:06:34;17.20;99.90
38398;DHT22;24179;52.094;4.408;2023-06-14T04:09:35;17.20;99.90
38398;DHT22;24179;52.094;4.408;2023-06-14T04:12:35;17.20;99.90
38398;DHT22;24179;52.094;4.408;2023-06-14T04:15:36;17.20;99.90
38398;DHT22;24179;52.094;4.408;2023-06-14T04:18:42;17.30;99.90
38398;DHT22;24179;52.094;4.408;2023-06-14T04:21:42;17.30;99.90
38398;DHT22;24179;52.094;4.408;2023-06-14T04:24:43;17.30;99.90
38398;DHT22;24179;52.094;4.408;2023-06-14T04:27:45;17.30;99.90
38398;DHT22;24179;52.094;4.408;2023-06-14T04:30:47;17.30;99.90
38398;DHT22;24179;52.094;4.408;2023-06-14T04:33:47;17.30;99.90
38398;DHT22;24179;52.094;4.408;2023-06-14T04:36:50;17.30;99.90
38398;DHT22;24179;52.094;4.408;2023-06-14T04:39:55;17.30;99.90
38398;DHT22;24179;52.094;4.408;2023-06-14T04:42:56;17.30;99.90
38398;DHT22;24179;52.094;4.408;2023-06-14T04:49:19;17.40;99.90
38398;DHT22;24179;52.094;4.408;2023-06-14T04:52:19;17.40;99.90
38398;DHT22;24179;52.094;4.408;2023-06-14T04:55:21;17.40;99.90
38398;DHT22;24179;52.094;4.408;2023-06-14T04:58:21;17.40;99.90
38398;DHT22;24179;52.094;4.408;2023-06-14T05:01:22;17.50;99.90
38398;DHT22;24179;52.094;4.408;2023-06-14T05:04:23;17.50;99.90
38398;DHT22;24179;52.094;4.408;2023-06-14T05:07:26;17.50;99.90
38398;DHT22;24179;52.094;4.408;2023-06-14T05:10:26;17.80;99.90
38398;DHT22;24179;52.094;4.408;2023-06-14T05:13:27;17.60;99.90
38398;DHT22;24179;52.094;4.408;2023-06-14T05:16:28;17.70;99.70
38398;DHT22;24179;52.094;4.408;2023-06-14T05:19:35;17.70;99.90
38398;DHT22;24179;52.094;4.408;2023-06-14T05:22:36;17.80;99.90
38398;DHT22;24179;52.094;4.408;2023-06-14T05:25:36;17.80;99.90
38398;DHT22;24179;52.094;4.408;2023-06-14T05:28:38;17.80;99.50
38398;DHT22;24179;52.094;4.408;2023-06-14T05:31:38;17.80;99.90
38398;DHT22;24179;52.094;4.408;2023-06-14T05:34:39;17.90;99.90
38398;DHT22;24179;52.094;4.408;2023-06-14T05:37:40;18.00;99.90
38398;DHT22;24179;52.094;4.408;2023-06-14T05:40:40;17.90;99.60
38398;DHT22;24179;52.094;4.408;2023-06-14T05:43:41;18.10;99.30
38398;DHT22;24179;52.094;4.408;2023-06-14T05:46:41;18.00;99.40
38398;DHT22;24179;52.094;4.408;2023-06-14T05:49:42;18.10;99.40
38398;DHT22;24179;52.094;4.408;2023-06-14T05:52:42;18.20;99.10
38398;DHT22;24179;52.094;4.408;2023-06-14T05:55:43;18.20;98.50
38398;DHT22;24179;52.094;4.408;2023-06-14T05:58:43;18.40;98.20
38398;DHT22;24179;52.094;4.408;2023-06-14T06:01:44;18.20;98.20
38398;DHT22;24179;52.094;4.408;2023-06-14T06:04:45;18.30;98.20
38398;DHT22;24179;52.094;4.408;2023-06-14T06:07:45;18.40;97.80
38398;DHT22;24179;52.094;4.408;2023-06-14T06:10:46;18.50;97.90
38398;DHT22;24179;52.094;4.408;2023-06-14T06:13:46;18.60;97.70
38398;DHT22;24179;52.094;4.408;2023-06-14T06:16:51;18.70;97.30
38398;DHT22;24179;52.094;4.408;2023-06-14T06:19:53;18.80;96.60
38398;DHT22;24179;52.094;4.408;2023-06-14T06:22:57;18.70;96.10
38398;DHT22;24179;52.094;4.408;2023-06-14T06:25:58;19.00;97.00
38398;DHT22;24179;52.094;4.408;2023-06-14T06:29:00;19.00;96.10
38398;DHT22;24179;52.094;4.408;2023-06-14T06:32:01;19.30;96.30
38398;DHT22;24179;52.094;4.408;2023-06-14T06:35:02;19.60;96.70
38398;DHT22;24179;52.094;4.408;2023-06-14T06:38:03;20.30;95.80
38398;DHT22;24179;52.094;4.408;2023-06-14T06:41:04;21.00;95.00
38398;DHT22;24179;52.094;4.408;2023-06-14T06:44:04;21.50;92.60
38398;DHT22;24179;52.094;4.408;2023-06-14T06:47:05;22.10;92.20
38398;DHT22;24179;52.094;4.408;2023-06-14T06:50:10;22.50;91.00
38398;DHT22;24179;52.094;4.408;2023-06-14T06:53:10;23.10;90.70
38398;DHT22;24179;52.094;4.408;2023-06-14T06:56:10;23.60;88.20
38398;DHT22;24179;52.094;4.408;2023-06-14T06:59:12;24.00;85.00
38398;DHT22;24179;52.094;4.408;2023-06-14T07:02:13;24.30;82.50
38398;DHT22;24179;52.094;4.408;2023-06-14T07:05:14;24.70;81.90
38398;DHT22;24179;52.094;4.408;2023-06-14T07:08:14;25.10;81.10
38398;DHT22;24179;52.094;4.408;2023-06-14T07:11:15;25.40;78.30
38398;DHT22;24179;52.094;4.408;2023-06-14T07:14:15;25.40;78.40
38398;DHT22;24179;52.094;4.408;2023-06-14T07:17:16;25.80;77.80
38398;DHT22;24179;52.094;4.408;2023-06-14T07:20:19;26.10;76.50
38398;DHT22;24179;52.094;4.408;2023-06-14T07:23:21;26.30;74.70
38398;DHT22;24179;52.094;4.408;2023-06-14T07:26:22;26.50;75.50
38398;DHT22;24179;52.094;4.408;2023-06-14T07:29:26;27.20;75.40
38398;DHT22;24179;52.094;4.408;2023-06-14T07:32:27;27.30;71.70
38398;DHT22;24179;52.094;4.408;2023-06-14T07:35:27;27.10;71.80
38398;DHT22;24179;52.094;4.408;2023-06-14T07:38:28;27.20;72.20
38398;DHT22;24179;52.094;4.408;2023-06-14T07:41:28;27.50;71.30
38398;DHT22;24179;52.094;4.408;2023-06-14T07:44:29;27.50;70.00
38398;DHT22;24179;52.094;4.408;2023-06-14T07:47:32;27.80;69.70
38398;DHT22;24179;52.094;4.408;2023-06-14T07:50:33;28.00;69.90
38398;DHT22;24179;52.094;4.408;2023-06-14T07:53:33;28.30;67.80
38398;DHT22;24179;52.094;4.408;2023-06-14T07:56:34;28.70;68.30
38398;DHT22;24179;52.094;4.408;2023-06-14T07:59:41;28.90;67.40
38398;DHT22;24179;52.094;4.408;2023-06-14T08:02:42;29.10;66.60
38398;DHT22;24179;52.094;4.408;2023-06-14T08:05:43;29.00;66.50
38398;DHT22;24179;52.094;4.408;2023-06-14T08:08:43;29.10;67.00
38398;DHT22;24179;52.094;4.408;2023-06-14T08:11:44;29.70;67.10
38398;DHT22;24179;52.094;4.408;2023-06-14T08:14:44;29.90;65.30
38398;DHT22;24179;52.094;4.408;2023-06-14T08:17:45;29.80;64.80
38398;DHT22;24179;52.094;4.408;2023-06-14T08:20:46;29.80;64.70
38398;DHT22;24179;52.094;4.408;2023-06-14T08:23:46;29.70;64.50
38398;DHT22;24179;52.094;4.408;2023-06-14T08:26:53;29.80;64.40
38398;DHT22;24179;52.094;4.408;2023-06-14T08:29:54;30.40;65.10
38398;DHT22;24179;52.094;4.408;2023-06-14T08:32:54;30.80;63.80
38398;DHT22;24179;52.094;4.408;2023-06-14T08:35:57;31.20;64.60
38398;DHT22;24179;52.094;4.408;2023-06-14T08:38:57;31.60;61.90
38398;DHT22;24179;52.094;4.408;2023-06-14T08:41:58;31.80;62.60
38398;DHT22;24179;52.094;4.408;2023-06-14T08:44:58;31.60;62.80
38398;DHT22;24179;52.094;4.408;2023-06-14T08:48:03;31.80;61.70
38398;DHT22;24179;52.094;4.408;2023-06-14T08:51:05;31.70;62.40
38398;DHT22;24179;52.094;4.408;2023-06-14T08:54:06;31.80;61.80
38398;DHT22;24179;52.094;4.408;2023-06-14T08:57:07;32.40;61.60
38398;DHT22;24179;52.094;4.408;2023-06-14T09:00:08;32.80;61.40
38398;DHT22;24179;52.094;4.408;2023-06-14T09:03:12;32.80;61.50
38398;DHT22;24179;52.094;4.408;2023-06-14T09:06:18;32.80;61.00
38398;DHT22;24179;52.094;4.408;2023-06-14T09:09:20;32.80;61.30
38398;DHT22;24179;52.094;4.408;2023-06-14T09:12:21;32.90;60.80
38398;DHT22;24179;52.094;4.408;2023-06-14T09:15:22;32.70;59.90
38398;DHT22;24179;52.094;4.408;2023-06-14T09:18:26;32.40;60.10
38398;DHT22;24179;52.094;4.408;2023-06-14T09:21:34;32.90;60.60
38398;DHT22;24179;52.094;4.408;2023-06-14T09:24:34;33.10;59.80
38398;DHT22;24179;52.094;4.408;2023-06-14T09:27:36;33.50;58.80
38398;DHT22;24179;52.094;4.408;2023-06-14T09:30:39;33.40;57.60
38398;DHT22;24179;52.094;4.408;2023-06-14T09:33:43;33.30;56.50
38398;DHT22;24179;52.094;4.408;2023-06-14T09:36:50;33.30;58.10
38398;DHT22;24179;52.094;4.408;2023-06-14T09:39:51;33.30;57.20
38398;DHT22;24179;52.094;4.408;2023-06-14T09:42:51;33.60;56.40
38398;DHT22;24179;52.094;4.408;2023-06-14T09:45:52;34.00;56.50
38398;DHT22;24179;52.094;4.408;2023-06-14T09:48:53;34.20;56.90
38398;DHT22;24179;52.094;4.408;2023-06-14T09:51:54;33.80;56.30
38398;DHT22;24179;52.094;4.408;2023-06-14T09:54:56;34.10;56.20
38398;DHT22;24179;52.094;4.408;2023-06-14T09:57:57;34.40;55.50
38398;DHT22;24179;52.094;4.408;2023-06-14T10:00:59;34.70;56.60
38398;DHT22;24179;52.094;4.408;2023-06-14T10:04:04;34.60;54.80
38398;DHT22;24179;52.094;4.408;2023-06-14T10:07:05;34.60;54.90
38398;DHT22;24179;52.094;4.408;2023-06-14T10:10:06;34.70;54.10
38398;DHT22;24179;52.094;4.408;2023-06-14T10:13:09;34.40;54.50
38398;DHT22;24179;52.094;4.408;2023-06-14T10:19:19;34.80;54.80
38398;DHT22;24179;52.094;4.408;2023-06-14T10:22:30;34.60;54.10
38398;DHT22;24179;52.094;4.408;2023-06-14T10:25:33;34.50;53.40
38398;DHT22;24179;52.094;4.408;2023-06-14T10:28:34;34.70;54.30
38398;DHT22;24179;52.094;4.408;2023-06-14T10:31:40;34.30;53.80
38398;DHT22;24179;52.094;4.408;2023-06-14T10:34:42;34.30;54.50
38398;DHT22;24179;52.094;4.408;2023-06-14T10:37:42;34.80;54.20
38398;DHT22;24179;52.094;4.408;2023-06-14T10:40:52;35.00;53.40
38398;DHT22;24179;52.094;4.408;2023-06-14T10:43:52;35.20;53.10
38398;DHT22;24179;52.094;4.408;2023-06-14T10:47:13;35.50;53.10
38398;DHT22;24179;52.094;4.408;2023-06-14T10:50:27;35.50;52.30
38398;DHT22;24179;52.094;4.408;2023-06-14T10:53:28;35.30;51.60
38398;DHT22;24179;52.094;4.408;2023-06-14T10:56:29;35.30;52.10
38398;DHT22;24179;52.094;4.408;2023-06-14T10:59:30;35.50;52.20
38398;DHT22;24179;52.094;4.408;2023-06-14T11:09:02;35.80;51.30
38398;DHT22;24179;52.094;4.408;2023-06-14T11:12:07;35.60;50.50
38398;DHT22;24179;52.094;4.408;2023-06-14T11:15:10;35.90;50.50
38398;DHT22;24179;52.094;4.408;2023-06-14T11:18:11;35.70;50.90
38398;DHT22;24179;52.094;4.408;2023-06-14T11:21:15;35.80;51.30
38398;DHT22;24179;52.094;4.408;2023-06-14T11:24:16;36.00;50.60
38398;DHT22;24179;52.094;4.408;2023-06-14T11:27:17;36.30;50.80
38398;DHT22;24179;52.094;4.408;2023-06-14T11:30:17;36.50;51.20
38398;DHT22;24179;52.094;4.408;2023-06-14T11:33:18;36.60;50.00
38398;DHT22;24179;52.094;4.408;2023-06-14T11:36:19;36.10;49.90
38398;DHT22;24179;52.094;4.408;2023-06-14T11:39:23;35.60;50.10
38398;DHT22;24179;52.094;4.408;2023-06-14T11:42:26;36.00;50.40
38398;DHT22;24179;52.094;4.408;2023-06-14T11:45:28;36.20;49.70
38398;DHT22;24179;52.094;4.408;2023-06-14T11:48:35;36.50;49.80
38398;DHT22;24179;52.094;4.408;2023-06-14T11:51:36;36.50;49.70
38398;DHT22;24179;52.094;4.408;2023-06-14T11:54:37;36.20;49.80
38398;DHT22;24179;52.094;4.408;2023-06-14T11:57:37;36.10;49.00
38398;DHT22;24179;52.094;4.408;2023-06-14T12:00:39;36.30;48.60
38398;DHT22;24179;52.094;4.408;2023-06-14T12:03:41;35.50;47.80
38398;DHT22;24179;52.094;4.408;2023-06-14T12:06:47;35.10;48.90
38398;DHT22;24179;52.094;4.408;2023-06-14T12:12:56;35.90;47.90
38398;DHT22;24179;52.094;4.408;2023-06-14T12:15:56;35.70;48.40
38398;DHT22;24179;52.094;4.408;2023-06-14T12:18:59;36.30;48.60
38398;DHT22;24179;52.094;4.408;2023-06-14T12:22:00;36.40;49.20
38398;DHT22;24179;52.094;4.408;2023-06-14T12:25:01;36.40;49.80
38398;DHT22;24179;52.094;4.408;2023-06-14T12:28:07;36.80;49.40
38398;DHT22;24179;52.094;4.408;2023-06-14T12:31:08;36.70;49.20
38398;DHT22;24179;52.094;4.408;2023-06-14T12:34:08;36.70;49.60
38398;DHT22;24179;52.094;4.408;2023-06-14T12:37:10;36.90;48.80
38398;DHT22;24179;52.094;4.408;2023-06-14T12:40:11;36.50;47.80
38398;DHT22;24179;52.094;4.408;2023-06-14T12:43:11;36.40;49.20
38398;DHT22;24179;52.094;4.408;2023-06-14T12:46:13;37.00;49.30
38398;DHT22;24179;52.094;4.408;2023-06-14T12:49:13;36.70;49.00
38398;DHT22;24179;52.094;4.408;2023-06-14T12:52:14;36.90;49.00
38398;DHT22;24179;52.094;4.408;2023-06-14T12:55:15;36.60;48.50
38398;DHT22;24179;52.094;4.408;2023-06-14T12:58:15;36.60;48.60
38398;DHT22;24179;52.094;4.408;2023-06-14T13:01:18;36.90;49.60
38398;DHT22;24179;52.094;4.408;2023-06-14T13:04:18;36.70;48.30
38398;DHT22;24179;52.094;4.408;2023-06-14T13:07:18;36.40;49.50
38398;DHT22;24179;52.094;4.408;2023-06-14T13:10:19;36.30;49.40
38398;DHT22;24179;52.094;4.408;2023-06-14T13:13:20;36.30;49.70
38398;DHT22;24179;52.094;4.408;2023-06-14T13:16:21;36.20;49.20
38398;DHT22;24179;52.094;4.408;2023-06-14T13:19:21;36.30;50.00
38398;DHT22;24179;52.094;4.408;2023-06-14T13:22:22;36.40;50.50
38398;DHT22;24179;52.094;4.408;2023-06-14T13:25:22;36.90;49.70
38398;DHT22;24179;52.094;4.408;2023-06-14T13:28:23;37.20;49.20
38398;DHT22;24179;52.094;4.408;2023-06-14T13:31:23;37.00;49.70
38398;DHT22;24179;52.094;4.408;2023-06-14T13:34:24;36.70;50.00
38398;DHT22;24179;52.094;4.408;2023-06-14T13:37:24;36.60;49.10
38398;DHT22;24179;52.094;4.408;2023-06-14T13:40:25;36.60;49.40
38398;DHT22;24179;52.094;4.408;2023-06-14T13:43:26;36.40;49.20
38398;DHT22;24179;52.094;4.408;2023-06-14T13:46:26;36.30;49.90
38398;DHT22;24179;52.094;4.408;2023-06-14T13:49:27;36.40;49.50
38398;DHT22;24179;52.094;4.408;2023-06-14T13:52:27;36.40;49.60
38398;DHT22;24179;52.094;4.408;2023-06-14T13:55:28;36.30;49.50
38398;DHT22;24179;52.094;4.408;2023-06-14T13:58:28;36.10;49.60
38398;DHT22;24179;52.094;4.408;2023-06-14T14:01:29;36.10;49.90
38398;DHT22;24179;52.094;4.408;2023-06-14T14:04:30;36.20;49.90
38398;DHT22;24179;52.094;4.408;2023-06-14T14:07:31;36.30;49.00
38398;DHT22;24179;52.094;4.408;2023-06-14T14:10:31;36.00;48.90
38398;DHT22;24179;52.094;4.408;2023-06-14T14:13:32;35.80;49.90
38398;DHT22;24179;52.094;4.408;2023-06-14T14:16:32;35.90;49.50
38398;DHT22;24179;52.094;4.408;2023-06-14T14:19:33;35.60;49.60
38398;DHT22;24179;52.094;4.408;2023-06-14T14:22:33;35.70;49.00
38398;DHT22;24179;52.094;4.408;2023-06-14T14:25:34;35.80;49.90
38398;DHT22;24179;52.094;4.408;2023-06-14T14:28:34;35.90;50.10
38398;DHT22;24179;52.094;4.408;2023-06-14T14:31:35;36.00;49.40
38398;DHT22;24179;52.094;4.408;2023-06-14T14:34:35;35.90;50.10
38398;DHT22;24179;52.094;4.408;2023-06-14T14:37:36;36.00;49.90
38398;DHT22;24179;52.094;4.408;2023-06-14T14:40:36;36.00;49.80
38398;DHT22;24179;52.094;4.408;2023-06-14T14:43:37;36.20;49.70
38398;DHT22;24179;52.094;4.408;2023-06-14T14:46:37;36.30;48.70
38398;DHT22;24179;52.094;4.408;2023-06-14T14:49:39;36.80;49.80
38398;DHT22;24179;52.094;4.408;2023-06-14T14:52:39;36.30;49.30
38398;DHT22;24179;52.094;4.408;2023-06-14T14:55:40;36.00;49.00
38398;DHT22;24179;52.094;4.408;2023-06-14T14:58:41;36.10;49.20
38398;DHT22;24179;52.094;4.408;2023-06-14T15:01:42;36.60;48.90
38398;DHT22;24179;52.094;4.408;2023-06-14T15:04:42;36.60;49.00
38398;DHT22;24179;52.094;4.408;2023-06-14T15:07:43;36.40;49.10
38398;DHT22;24179;52.094;4.408;2023-06-14T15:10:44;36.20;49.30
38398;DHT22;24179;52.094;4.408;2023-06-14T15:13:46;36.70;49.60
38398;DHT22;24179;52.094;4.408;2023-06-14T15:16:47;36.80;48.60
38398;DHT22;24179;52.094;4.408;2023-06-14T15:19:48;36.70;49.00
38398;DHT22;24179;52.094;4.408;2023-06-14T15:22:48;37.20;49.60
38398;DHT22;24179;52.094;4.408;2023-06-14T15:25:49;37.40;48.50
38398;DHT22;24179;52.094;4.408;2023-06-14T15:28:50;37.10;48.20
38398;DHT22;24179;52.094;4.408;2023-06-14T15:31:50;36.80;48.20
38398;DHT22;24179;52.094;4.408;2023-06-14T15:34:51;36.50;48.50
38398;DHT22;24179;52.094;4.408;2023-06-14T15:37:52;36.50;48.70
38398;DHT22;24179;52.094;4.408;2023-06-14T15:40:52;36.70;48.50
38398;DHT22;24179;52.094;4.408;2023-06-14T15:43:52;36.60;48.90
38398;DHT22;24179;52.094;4.408;2023-06-14T15:46:53;36.50;48.50
38398;DHT22;24179;52.094;4.408;2023-06-14T15:49:54;36.70;48.60
38398;DHT22;24179;52.094;4.408;2023-06-14T15:52:54;36.50;48.20
38398;DHT22;24179;52.094;4.408;2023-06-14T15:55:55;36.40;49.00
38398;DHT22;24179;52.094;4.408;2023-06-14T15:58:55;36.60;48.20
38398;DHT22;24179;52.094;4.408;2023-06-14T16:01:56;36.70;49.10
38398;DHT22;24179;52.094;4.408;2023-06-14T16:04:56;36.90;48.90
38398;DHT22;24179;52.094;4.408;2023-06-14T16:07:57;37.00;49.50
38398;DHT22;24179;52.094;4.408;2023-06-14T16:10:57;37.00;48.00
38398;DHT22;24179;52.094;4.408;2023-06-14T16:13:58;36.90;48.30
38398;DHT22;24179;52.094;4.408;2023-06-14T16:16:58;36.30;48.10
38398;DHT22;24179;52.094;4.408;2023-06-14T16:19:59;35.40;48.90
38398;DHT22;24179;52.094;4.408;2023-06-14T16:23:00;34.40;48.90
38398;DHT22;24179;52.094;4.408;2023-06-14T16:26:00;33.70;49.60
38398;DHT22;24179;52.094;4.408;2023-06-14T16:29:01;32.60;49.70
38398;DHT22;24179;52.094;4.408;2023-06-14T16:32:01;31.30;50.00
38398;DHT22;24179;52.094;4.408;2023-06-14T16:35:02;30.30;51.30
38398;DHT22;24179;52.094;4.408;2023-06-14T16:38:03;29.70;52.20
38398;DHT22;24179;52.094;4.408;2023-06-14T16:41:03;29.20;51.30
38398;DHT22;24179;52.094;4.408;2023-06-14T16:44:04;28.80;51.90
38398;DHT22;24179;52.094;4.408;2023-06-14T16:47:05;28.40;52.80
38398;DHT22;24179;52.094;4.408;2023-06-14T16:50:06;28.10;52.50
38398;DHT22;24179;52.094;4.408;2023-06-14T16:53:07;28.00;53.70
38398;DHT22;24179;52.094;4.408;2023-06-14T16:56:08;28.00;53.30
38398;DHT22;24179;52.094;4.408;2023-06-14T16:59:08;28.00;53.70
38398;DHT22;24179;52.094;4.408;2023-06-14T17:02:08;27.90;53.30
38398;DHT22;24179;52.094;4.408;2023-06-14T17:05:09;27.80;53.70
38398;DHT22;24179;52.094;4.408;2023-06-14T17:08:09;27.70;53.70
38398;DHT22;24179;52.094;4.408;2023-06-14T17:11:10;27.70;53.20
38398;DHT22;24179;52.094;4.408;2023-06-14T17:14:10;27.60;53.70
38398;DHT22;24179;52.094;4.408;2023-06-14T17:17:15;27.50;54.00
38398;DHT22;24179;52.094;4.408;2023-06-14T17:20:15;27.40;55.40
38398;DHT22;24179;52.094;4.408;2023-06-14T17:23:16;27.20;54.80
38398;DHT22;24179;52.094;4.408;2023-06-14T17:26:16;27.10;54.70
38398;DHT22;24179;52.094;4.408;2023-06-14T17:29:17;27.00;55.40
38398;DHT22;24179;52.094;4.408;2023-06-14T17:32:17;27.00;55.50
38398;DHT22;24179;52.094;4.408;2023-06-14T17:35:18;26.90;55.40
38398;DHT22;24179;52.094;4.408;2023-06-14T17:38:19;26.70;54.40
38398;DHT22;24179;52.094;4.408;2023-06-14T17:41:19;26.60;55.20
38398;DHT22;24179;52.094;4.408;2023-06-14T17:44:20;26.40;55.70
38398;DHT22;24179;52.094;4.408;2023-06-14T17:47:21;26.40;55.50
38398;DHT22;24179;52.094;4.408;2023-06-14T17:50:21;26.40;56.10
38398;DHT22;24179;52.094;4.408;2023-06-14T17:53:25;26.30;56.20
38398;DHT22;24179;52.094;4.408;2023-06-14T17:56:26;26.30;55.70
38398;DHT22;24179;52.094;4.408;2023-06-14T17:59:27;26.20;56.50
38398;DHT22;24179;52.094;4.408;2023-06-14T18:02:30;26.10;56.30
38398;DHT22;24179;52.094;4.408;2023-06-14T18:05:31;26.10;56.80
38398;DHT22;24179;52.094;4.408;2023-06-14T18:08:32;26.00;57.30
38398;DHT22;24179;52.094;4.408;2023-06-14T18:11:32;26.00;57.60
38398;DHT22;24179;52.094;4.408;2023-06-14T18:14:33;25.80;57.90
38398;DHT22;24179;52.094;4.408;2023-06-14T18:17:33;25.70;58.30
38398;DHT22;24179;52.094;4.408;2023-06-14T18:20:37;25.60;58.30
38398;DHT22;24179;52.094;4.408;2023-06-14T18:23:38;25.50;58.20
38398;DHT22;24179;52.094;4.408;2023-06-14T18:26:39;25.40;57.80
38398;DHT22;24179;52.094;4.408;2023-06-14T18:29:39;25.40;58.80
38398;DHT22;24179;52.094;4.408;2023-06-14T18:32:40;25.20;58.50
38398;DHT22;24179;52.094;4.408;2023-06-14T18:35:41;25.10;59.10
38398;DHT22;24179;52.094;4.408;2023-06-14T18:38:41;25.10;60.00
38398;DHT22;24179;52.094;4.408;2023-06-14T18:41:44;25.00;59.50
38398;DHT22;24179;52.094;4.408;2023-06-14T18:44:45;24.90;59.90
38398;DHT22;24179;52.094;4.408;2023-06-14T18:47:45;24.80;59.60
38398;DHT22;24179;52.094;4.408;2023-06-14T18:50:46;24.80;60.20
38398;DHT22;24179;52.094;4.408;2023-06-14T18:53:46;24.70;60.10
38398;DHT22;24179;52.094;4.408;2023-06-14T18:56:47;24.60;60.90
38398;DHT22;24179;52.094;4.408;2023-06-14T18:59:47;24.50;60.90
38398;DHT22;24179;52.094;4.408;2023-06-14T19:02:48;24.40;60.80
38398;DHT22;24179;52.094;4.408;2023-06-14T19:05:48;24.40;61.30
38398;DHT22;24179;52.094;4.408;2023-06-14T19:08:51;24.40;61.30
38398;DHT22;24179;52.094;4.408;2023-06-14T19:11:52;24.10;61.90
38398;DHT22;24179;52.094;4.408;2023-06-14T19:14:52;24.00;62.10
38398;DHT22;24179;52.094;4.408;2023-06-14T19:17:57;23.90;61.90
38398;DHT22;24179;52.094;4.408;2023-06-14T19:20:58;23.90;62.30
38398;DHT22;24179;52.094;4.408;2023-06-14T19:23:58;23.80;62.80